Time;durP1;ratioP1;P1;durP2;ratioP2;P2;SDS_P1;SDS_P2;PMS_P1;PMS_P2;Temp;Humidity;BMP_temperature;BMP_pressure;BME280_temperature;BME280_humidity;BME280_pressure;Samples;Min_cycle;Max_cycle;Signal;HPM_P1;HPM_P2
2022/01/04 00:00:54;;;;;;;18.20;4.72;;;;;;;;;;5078300;28;20043;-86
2022/01/04 00:03:20;;;;;;;18.67;4.18;;;;;;;;;;5079059;28;20071;-86
2022/01/04 00:05:46;;;;;;;23.48;4.88;;;;;;;;;;5078820;28;20043;-86
2022/01/04 00:08:13;;;;;;;23.20;5.05;;;;;;;;;;5097130;28;20044;-86
2022/01/04 00:10:39;;;;;;;21.95;6.68;;;;;;;;;;5061439;28;20109;-86
2022/01/04 00:13:22;;;;;;;18.67;4.50;;;;;;;;;;5061886;28;20036;-86
2022/01/04 00:15:57;;;;;;;23.50;5.10;;;;;;;;;;5078206;28;20052;-85
2022/01/04 00:18:24;;;;;;;19.63;5.35;;;;;;;;;;5078333;28;20110;-86
2022/01/04 00:20:50;;;;;;;15.95;4.25;;;;;;;;;;5097216;28;20040;-85
2022/01/04 00:23:19;;;;;;;17.27;4.53;;;;;;;;;;5078134;28;20036;-85
2022/01/04 00:25:46;;;;;;;22.30;4.75;;;;;;;;;;5060479;28;20481;-85
2022/01/04 00:28:12;;;;;;;19.17;5.30;;;;;;;;;;5060633;28;20458;-86
2022/01/04 00:30:39;;;;;;;17.77;4.55;;;;;;;;;;5060286;28;20075;-86
2022/01/04 00:33:06;;;;;;;21.90;5.25;;;;;;;;;;5093348;28;20086;-86
2022/01/04 00:35:32;;;;;;;20.10;4.97;;;;;;;;;;5076450;28;20040;-86
2022/01/04 00:37:58;;;;;;;23.10;5.45;;;;;;;;;;5077057;28;20039;-86
2022/01/04 00:40:24;;;;;;;20.98;4.45;;;;;;;;;;5077322;28;20048;-86
2022/01/04 00:43:00;;;;;;;22.75;4.57;;;;;;;;;;5095207;28;20040;-86
2022/01/04 00:45:27;;;;;;;16.02;4.97;;;;;;;;;;5060440;28;20090;-87
2022/01/04 00:50:25;;;;;;;20.80;3.97;;;;;;;;;;5077028;28;20519;-86
2022/01/04 00:52:51;;;;;;;22.92;4.82;;;;;;;;;;5060229;28;20406;-86
2022/01/04 00:55:18;;;;;;;26.05;5.40;;;;;;;;;;5060520;28;20048;-85
2022/01/04 00:57:44;;;;;;;26.38;5.75;;;;;;;;;;5077351;28;20391;-85
2022/01/04 01:00:12;;;;;;;17.90;4.63;;;7.90;99.90;;;;;;5077327;28;20520;-85
2022/01/04 01:02:38;;;;;;;19.20;4.97;;;;;;;;;;5079561;28;20515;-86
2022/01/04 01:05:05;;;;;;;16.25;4.20;;;;;;;;;;5060108;28;20044;-86
2022/01/04 01:07:31;;;;;;;22.77;5.20;;;;;;;;;;5091741;28;20496;-86
2022/01/04 01:10:25;;;;;;;19.30;5.30;;;;;;;;;;5067476;28;20031;-86
2022/01/04 01:12:52;;;;;;;22.15;5.05;;;;;;;;;;5076722;28;20179;-86
2022/01/04 01:15:18;;;;;;;20.98;4.95;;;;;;;;;;5059744;28;20393;-85
2022/01/04 01:17:44;;;;;;;20.10;6.15;;;;;;;;;;5059654;28;20048;-86
2022/01/04 01:20:13;;;;;;;17.60;5.07;;;;;;;;;;5076549;28;20048;-86
2022/01/04 01:22:39;;;;;;;25.75;5.78;;;;;;;;;;5059685;28;20046;-84
2022/01/04 01:25:05;;;;;;;20.23;6.15;;;;;;;;;;5061028;28;20040;-86
2022/01/04 01:27:31;;;;;;;24.00;5.95;;;;;;;;;;5077905;28;20119;-86
2022/01/04 01:29:57;;;;;;;23.40;7.13;;;;;;;;;;5078101;28;20181;-86
2022/01/04 01:32:23;;;;;;;23.95;6.30;;;;;;;;;;5061300;28;20040;-86
2022/01/04 01:34:49;;;;;;;19.30;5.05;;;;;;;;;;5095265;28;20039;-86
2022/01/04 01:37:16;;;;;;;25.00;6.53;;;;;;;;;;5095681;28;20046;-87
2022/01/04 01:39:42;;;;;;;28.95;7.60;;;;;;;;;;5082574;28;20049;-86
2022/01/04 01:42:08;;;;;;;24.73;6.88;;;;;;;;;;5083599;28;20044;-89
2022/01/04 01:44:35;;;;;;;21.42;6.82;;;;;;;;;;5082506;28;20078;-87
2022/01/04 01:47:01;;;;;;;29.88;7.05;;;;;;;;;;5082646;28;20024;-87
2022/01/04 01:49:27;;;;;;;25.10;7.63;;;;;;;;;;5088286;28;20040;-86
2022/01/04 01:51:53;;;;;;;19.17;6.60;;;;;;;;;;5077600;28;20073;-85
2022/01/04 01:54:20;;;;;;;20.20;7.57;;;;;;;;;;5095236;28;20043;-83
2022/01/04 01:56:46;;;;;;;22.70;6.32;;;;;;;;;;5076280;28;20446;-86
2022/01/04 01:59:13;;;;;;;26.23;6.68;;;;;;;;;;5076823;28;20406;-86
2022/01/04 02:01:39;;;;;;;24.63;7.53;;;;;;;;;;5075867;28;20450;-86
2022/01/04 02:04:06;;;;;;;26.40;6.57;;;;;;;;;;5071794;28;20200;-86
2022/01/04 02:06:32;;;;;;;26.05;6.63;;;;;;;;;;5059416;28;20036;-86
2022/01/04 02:08:59;;;;;;;24.73;6.53;;;;;;;;;;5058955;28;20124;-86
2022/01/04 02:11:28;;;;;;;31.67;7.50;;;;;;;;;;5075404;28;20040;-87
2022/01/04 02:13:55;;;;;;;23.80;6.65;;;;;;;;;;5059156;28;20051;-86
2022/01/04 02:16:21;;;;;;;28.65;6.85;;;;;;;;;;5058147;28;20040;-86
2022/01/04 02:18:47;;;;;;;27.25;8.50;;;;;;;;;;5076463;28;20492;-86
2022/01/04 02:21:13;;;;;;;27.35;7.72;;;;;;;;;;5075198;28;20059;-85
2022/01/04 02:23:39;;;;;;;22.60;6.90;;;;;;;;;;5093475;28;20040;-86
2022/01/04 02:26:05;;;;;;;26.77;7.75;;;;;;;;;;5075428;28;20077;-85
2022/01/04 02:28:32;;;;;;;25.42;8.68;;;;;;;;;;5093855;28;20064;-86
2022/01/04 02:30:58;;;;;;;28.52;8.82;;;;;;;;;;5093408;28;20123;-86
2022/01/04 02:33:24;;;;;;;28.15;8.95;;;;;;;;;;5058333;28;20113;-86
2022/01/04 02:35:50;;;;;;;32.67;9.13;;;;;;;;;;5074662;28;20040;-86
2022/01/04 02:38:16;;;;;;;29.33;8.70;;;;;;;;;;5058744;28;20044;-86
2022/01/04 02:40:42;;;;;;;36.80;10.65;;;;;;;;;;5058916;28;20044;-85
2022/01/04 02:43:08;;;;;;;32.90;10.27;;;;;;;;;;5075019;28;20555;-86
2022/01/04 02:45:35;;;;;;;31.58;10.13;;;;;;;;;;5092680;28;20048;-85
2022/01/04 02:48:01;;;;;;;28.58;8.85;;;;;;;;;;5058076;28;20040;-86
2022/01/04 02:50:27;;;;;;;30.98;9.98;;;;;;;;;;5074934;28;20150;-86
2022/01/04 02:52:55;;;;;;;27.40;10.13;;;;;;;;;;5074439;28;20123;-85
2022/01/04 02:55:22;;;;;;;30.17;9.95;;;;;;;;;;5074876;28;20478;-86
2022/01/04 02:57:51;;;;;;;37.40;12.57;;;;;;;;;;5058332;28;20108;-83
2022/01/04 03:00:17;;;;;;;27.80;10.02;;;;;;;;;;5093160;28;20044;-86
2022/01/04 03:02:45;;;;;;;40.47;11.55;;;;;;;;;;5074313;28;20039;-86
2022/01/04 03:05:11;;;;;;;36.60;11.73;;;;;;;;;;5092529;28;20102;-86
2022/01/04 03:07:37;;;;;;;30.80;12.10;;;;;;;;;;5058173;28;20040;-88
2022/01/04 03:10:04;;;;;;;37.33;10.55;;;;;;;;;;5075153;28;20051;-87
2022/01/04 03:12:30;;;;;;;23.67;8.80;;;;;;;;;;5092965;28;20036;-86
2022/01/04 03:14:56;;;;;;;32.00;10.00;;;;;;;;;;5057458;28;20036;-85
2022/01/04 03:17:22;;;;;;;33.10;9.90;;;;;;;;;;5074876;28;20131;-86
2022/01/04 03:19:48;;;;;;;33.25;9.93;;;;;;;;;;5075268;28;20039;-85
2022/01/04 03:22:14;;;;;;;32.33;10.90;;;;;;;;;;5093080;28;20048;-86
2022/01/04 03:24:40;;;;;;;28.48;10.23;;;;;;;;;;5092928;28;20076;-86
2022/01/04 03:27:06;;;;;;;27.65;9.10;;;;;;;;;;5077298;28;20044;-87
2022/01/04 03:29:32;;;;;;;27.90;9.73;;;;;;;;;;5076412;28;20074;-84
2022/01/04 03:31:58;;;;;;;28.48;8.68;;;;;;;;;;5091893;28;20299;-89
2022/01/04 03:34:25;;;;;;;23.92;8.85;;;;;;;;;;5072725;28;20048;-85
2022/01/04 03:36:51;;;;;;;27.17;9.10;;;;;;;;;;5070029;28;20029;-88
2022/01/04 03:39:17;;;;;;;30.98;9.82;;;;;;;;;;5095262;28;20039;-88
2022/01/04 03:41:45;;;;;;;31.77;9.10;;;;;;;;;;5099441;28;20059;-86
2022/01/04 03:44:18;;;;;;;33.63;9.27;;;;;;;;;;5098574;28;20044;-86
2022/01/04 03:46:44;;;;;;;25.73;8.80;;;;;;;;;;5099725;28;20056;-88
2022/01/04 03:49:10;;;;;;;30.98;8.63;;;;;;;;;;5117105;28;20126;-87
2022/01/04 03:51:37;;;;;;;36.03;9.63;;;;;;;;;;5117739;28;20104;-86
2022/01/04 03:54:03;;;;;;;33.65;8.15;;;;;;;;;;5118128;28;20054;-87
2022/01/04 03:56:29;;;;;;;33.05;8.45;;;;;;;;;;5100759;28;20039;-87
2022/01/04 03:58:55;;;;;;;34.17;8.50;;;;;;;;;;5084140;28;20096;-87
2022/01/04 04:01:21;;;;;;;30.50;8.55;;;;;;;;;;5101061;28;20032;-87
2022/01/04 04:03:47;;;;;;;28.42;8.32;;;;;;;;;;5083927;28;20073;-87
2022/01/04 04:06:13;;;;;;;32.63;7.43;;;;;;;;;;5099827;28;20040;-87
2022/01/04 04:08:39;;;;;;;35.40;7.88;;;;;;;;;;5116910;28;20048;-84
2022/01/04 04:11:08;;;;;;;29.40;6.60;;;;;;;;;;5083663;28;20047;-86
2022/01/04 04:13:36;;;;;;;29.55;6.70;;;;;;;;;;5058897;28;20408;-86
2022/01/04 04:16:02;;;;;;;25.38;6.45;;;;;;;;;;5075326;28;20146;-86
2022/01/04 04:18:29;;;;;;;23.15;6.50;;;;;;;;;;5091030;28;20574;-85
2022/01/04 04:20:55;;;;;;;25.77;7.35;;;;;;;;;;5067750;28;20115;-85
2022/01/04 04:23:21;;;;;;;29.50;7.03;;;;;;;;;;5057798;28;20488;-86
2022/01/04 04:25:47;;;;;;;29.65;7.20;;;;;;;;;;5058321;28;20040;-86
2022/01/04 04:28:13;;;;;;;29.20;5.93;;;;;;;;;;5061188;28;20032;-86
2022/01/04 04:30:39;;;;;;;30.58;6.55;;;;;;;;;;5060972;28;20365;-87
2022/01/04 04:33:05;;;;;;;21.95;6.35;;;;;;;;;;5061131;28;20101;-87
2022/01/04 04:35:31;;;;;;;25.15;6.75;;;;;;;;;;5068856;28;20044;-86
2022/01/04 04:37:58;;;;;;;28.05;7.13;;;;;;;;;;5064521;28;20051;-86
2022/01/04 04:40:24;;;;;;;19.80;5.50;;;;;;;;;;5063978;28;20056;-87
2022/01/04 04:42:50;;;;;;;30.10;6.07;;;;;;;;;;5066197;28;20043;-87
2022/01/04 04:45:16;;;;;;;27.85;7.57;;;;;;;;;;5099626;28;20122;-86
2022/01/04 04:47:42;;;;;;;24.25;6.25;;;;;;;;;;5081105;28;20104;-87
2022/01/04 04:50:09;;;;;;;27.45;7.50;;;;;;;;;;5082332;28;20028;-87
2022/01/04 04:52:35;;;;;;;21.10;5.70;;;;;;;;;;5063729;28;20044;-86
2022/01/04 04:55:01;;;;;;;26.00;5.80;;;;;;;;;;5060678;28;20491;-87
2022/01/04 04:57:27;;;;;;;22.98;5.40;;;;;;;;;;5077426;28;20089;-86
2022/01/04 04:59:53;;;;;;;27.58;6.30;;;;;;;;;;5060793;28;20044;-86
2022/01/04 05:02:19;;;;;;;24.35;6.30;;;;;;;;;;5095075;28;20466;-88
2022/01/04 05:04:45;;;;;;;23.13;6.07;;;;;;;;;;5094775;28;20051;-87
2022/01/04 05:07:14;;;;;;;27.23;5.85;;;;;;;;;;5059626;28;20036;-86
2022/01/04 05:09:40;;;;;;;25.20;5.95;;;;;;;;;;5059632;28;20040;-87
2022/01/04 05:12:06;;;;;;;24.73;6.75;;;;;;;;;;5059849;28;20123;-86
2022/01/04 05:14:33;;;;;;;18.50;5.30;;;;;;;;;;5059496;28;20048;-86
2022/01/04 05:16:59;;;;;;;29.50;5.82;;;;;;;;;;5060002;28;20127;-86
2022/01/04 05:19:25;;;;;;;24.58;5.70;;;;;;;;;;5094176;28;20043;-87
2022/01/04 05:21:53;;;;;;;20.92;5.40;;;;;;;;;;5076235;28;20411;-86
2022/01/04 05:24:19;;;;;;;26.40;5.60;;;;;;;;;;5089887;28;20040;-86
2022/01/04 05:26:45;;;;;;;19.25;4.85;;;;;;;;;;5069147;28;20516;-86
2022/01/04 05:29:14;;;;;;;26.50;5.93;;;;;;;;;;5065684;28;20116;-85
2022/01/04 05:31:40;;;;;;;24.75;5.78;;;;;;;;;;5059109;28;20040;-86
2022/01/04 05:34:06;;;;;;;23.48;5.22;;;;;;;;;;5060328;28;20419;-87
2022/01/04 05:36:33;;;;;;;29.23;6.15;;;;;;;;;;5060032;28;20051;-88
2022/01/04 05:39:00;;;;;;;25.77;6.57;;;;;;;;;;5075826;28;20048;-86
2022/01/04 05:41:26;;;;;;;21.70;4.93;;;;;;;;;;5059505;28;20075;-87
2022/01/04 05:43:52;;;;;;;23.52;5.60;;;;;;;;;;5075728;28;20078;-87
2022/01/04 05:46:21;;;;;;;17.92;4.68;;;;;;;;;;5049842;28;20043;-87
2022/01/04 05:48:51;;;;;;;21.83;5.30;;;;;;;;;;5042676;28;20033;-87
2022/01/04 05:51:17;;;;;;;21.13;5.68;;;;;;;;;;5062322;28;20036;-87
2022/01/04 05:53:44;;;;;;;22.98;4.75;;;;;;;;;;5073674;28;20096;-88
2022/01/04 05:56:12;;;;;;;19.48;5.72;;;;;;;;;;5075644;28;20075;-87
2022/01/04 05:58:38;;;;;;;23.55;4.68;;;;;;;;;;5045009;28;20040;-87
2022/01/04 06:01:04;;;;;;;22.38;5.53;;;;;;;;;;5047388;28;20633;-86
2022/01/04 06:03:30;;;;;;;22.95;4.75;;;;;;;;;;5066574;28;20036;-87
2022/01/04 06:05:56;;;;;;;24.95;7.13;;;;;;;;;;5051312;28;20092;-86
2022/01/04 06:08:23;;;;;;;22.45;5.22;;;;;;;;;;5082603;28;20064;-87
2022/01/04 06:10:54;;;;;;;22.17;5.07;;;;;;;;;;5056608;28;20439;-86
2022/01/04 06:16:07;;;;;;;21.85;5.82;;;;;;;;;;5075703;28;20504;-86
2022/01/04 06:18:33;;;;;;;19.63;4.60;;;;;;;;;;5073467;28;20036;-86
2022/01/04 06:21:02;;;;;;;19.30;5.03;;;;;;;;;;5073531;28;20111;-87
2022/01/04 06:23:28;;;;;;;19.42;5.32;;;;;;;;;;5060749;28;20044;-87
2022/01/04 06:28:53;;;;;;;;;;;;;;;;;;;;;
2022/01/04 06:31:47;;;;;;;;;;;;;;;;;;;;;
2022/01/04 06:34:13;;;;;;;19.60;6.35;;;;;;;;;;5067810;28;20045;-87
2022/01/04 06:36:39;;;;;;;26.52;6.07;;;;;;;;;;5073715;28;21433;-87
2022/01/04 06:39:06;;;;;;;26.30;5.80;;;;;;;;;;5092845;28;20040;-87
2022/01/04 06:41:32;;;;;;;28.63;5.70;;;;;;;;;;5058183;28;20052;-87
2022/01/04 06:43:58;;;;;;;30.55;8.88;;;;;;;;;;5074805;28;20044;-88
2022/01/04 06:46:27;;;;;;;27.73;7.03;;;;;;;;;;5058220;28;20400;-87
2022/01/04 06:48:53;;;;;;;18.35;5.10;;;;;;;;;;5074655;28;20071;-87
2022/01/04 06:51:19;;;;;;;23.50;5.25;;;;;;;;;;5058307;28;20491;-87
2022/01/04 06:53:45;;;;;;;19.55;6.32;;;;;;;;;;5074496;28;20040;-87
2022/01/04 06:56:12;;;;;;;17.88;5.10;;;;;;;;;;5074409;28;20119;-87
2022/01/04 06:58:38;;;;;;;23.55;6.00;;;;;;;;;;5058269;28;20036;-87
2022/01/04 07:01:04;;;;;;;26.55;6.88;;;;;;;;;;5074849;28;20044;-88
2022/01/04 07:03:33;;;;;;;31.17;7.03;;;;;;;;;;5058235;28;20032;-86
2022/01/04 07:06:25;;;;;;;23.95;5.57;;;;;;;;;;5058020;28;20075;-87
2022/01/04 07:08:54;;;;;;;27.13;6.82;;;;;;;;;;5058109;28;20613;-87
2022/01/04 07:11:20;;;;;;;27.33;5.03;;;;;;;;;;5054138;28;20047;-86
2022/01/04 07:13:46;;;;;;;31.27;6.60;;;;;;;;;;5038323;28;20043;-87
2022/01/04 07:16:12;;;;;;;23.42;7.93;;;;;;;;;;5057366;28;20098;-88
2022/01/04 07:18:46;;;;;;;23.98;5.90;;;;;;;;;;5071323;28;20119;-88
2022/01/04 07:21:12;;;;;;;23.10;5.87;;;;;;;;;;5058515;28;20402;-87
2022/01/04 07:23:38;;;;;;;20.70;6.15;;;;;;;;;;5058010;28;20504;-87
2022/01/04 07:26:04;;;;;;;18.35;5.03;;;;;;;;;;5057602;28;20086;-88
2022/01/04 07:28:31;;;;;;;28.63;7.35;;;;;;;;;;5074267;28;20079;-86
2022/01/04 07:30:57;;;;;;;24.58;7.75;;;;;;;;;;5058111;28;20468;-87
2022/01/04 07:33:23;;;;;;;24.10;5.65;;;;;;;;;;5074540;28;20122;-86
2022/01/04 07:35:49;;;;;;;18.65;5.63;;;;;;;;;;5057376;28;20040;-87
2022/01/04 07:38:16;;;;;;;25.55;6.15;;;;;;;;;;5074475;28;20040;-86
2022/01/04 07:40:44;;;;;;;30.13;9.25;;;;;;;;;;5066387;28;20101;-88
2022/01/04 07:43:12;;;;;;;27.08;7.97;;;;;;;;;;5074287;28;20044;-85
2022/01/04 07:45:41;;;;;;;24.90;6.75;;;;;;;;;;5073869;28;20051;-86
2022/01/04 07:48:10;;;;;;;27.33;7.63;;;;;;;;;;5074799;28;20081;-87
2022/01/04 07:50:46;;;;;;;21.20;5.90;;;;;;;;;;5057507;28;20040;-88
2022/01/04 07:53:12;;;;;;;24.13;7.63;;;;;;;;;;5074318;28;20488;-87
2022/01/04 07:55:38;;;;;;;26.25;6.63;;;;;;;;;;5057610;28;20123;-86
2022/01/04 07:58:04;;;;;;;24.30;6.32;;;;;;;;;;5057381;28;20040;-87
2022/01/04 08:00:33;;;;;;;24.75;6.18;;;;;;;;;;5058478;28;20051;-87
2022/01/04 08:03:01;;;;;;;13.73;2.88;;;;;;;;;;5061258;28;20036;-87
2022/01/04 08:05:30;;;;;;;12.77;2.35;;;;;;;;;;5078053;28;20044;-87
2022/01/04 08:07:58;;;;;;;11.70;2.25;;;;;;;;;;5052766;28;20055;-85
2022/01/04 08:10:24;;;;;;;10.00;2.17;;;;;;;;;;5041141;28;20046;-88
2022/01/04 08:12:50;;;;;;;12.68;2.25;;;;;;;;;;5040944;28;20051;-87
2022/01/04 08:15:19;;;;;;;9.05;1.70;;;;;;;;;;5041123;28;20047;-87
2022/01/04 08:17:47;;;;;;;6.15;2.00;;;;;;;;;;5051225;28;20086;-86
2022/01/04 08:20:16;;;;;;;9.68;1.63;;;;;;;;;;5083810;28;20121;-87
2022/01/04 08:22:59;;;;;;;9.00;2.10;;;;;;;;;;5056040;28;20125;-88
2022/01/04 08:28:51;;;;;;;9.52;2.25;;;;;;;;;;5074500;28;20043;-88
2022/01/04 08:31:17;;;;;;;10.00;1.60;;;;;;;;;;5095999;28;20487;-88
2022/01/04 08:33:43;;;;;;;5.93;1.52;;;;;;;;;;5061267;28;20036;-88
2022/01/04 08:36:17;;;;;;;9.80;1.50;;;;;;;;;;5077675;28;20648;-88
2022/01/04 08:38:44;;;;;;;10.23;1.90;;;;;;;;;;5056209;28;20048;-88
2022/01/04 08:41:19;;;;;;;6.43;1.52;;;;;;;;;;5047931;28;20040;-88
2022/01/04 08:44:06;;;;;;;9.75;1.70;;;;;;;;;;5058882;28;20063;-89
2022/01/04 08:46:36;;;;;;;8.75;1.50;;;;;;;;;;5056571;28;20040;-88
2022/01/04 08:49:07;;;;;;;9.20;1.58;;;;;;;;;;5052531;28;20089;-88
2022/01/04 08:51:36;;;;;;;9.32;1.52;;;;;;;;;;5056793;28;20032;-89
2022/01/04 08:54:11;;;;;;;7.13;1.20;;;;;;;;;;5069362;28;20033;-88
2022/01/04 08:56:45;;;;;;;10.07;2.10;;;;;;;;;;5048115;28;20036;-87
2022/01/04 08:59:13;;;;;;;12.13;1.80;;;;;;;;;;5047587;28;20028;-88
2022/01/04 09:01:50;;;;;;;9.45;1.60;;;;;;;;;;5061375;28;20126;-88
2022/01/04 09:04:16;;;;;;;5.15;1.63;;;;;;;;;;5081897;28;20078;-88
2022/01/04 09:07:05;;;;;;;6.93;1.30;;;;;;;;;;5057106;28;20036;-88
2022/01/04 09:09:31;;;;;;;7.72;1.33;;;;;;;;;;5062315;28;20040;-88
2022/01/04 09:12:01;;;;;;;9.05;1.73;;;;;;;;;;5070123;28;20046;-89
2022/01/04 09:14:42;;;;;;;10.15;1.58;;;;;;;;;;5060978;28;20043;-88
2022/01/04 09:19:58;;;;;;;9.65;2.33;;;;;;;;;;5061261;23;20056;-64
2022/01/04 09:22:24;;;;;;;5.78;1.67;;;;;;;;;;5053534;28;20496;-64
2022/01/04 09:24:50;;;;;;;7.15;1.50;;;;;;;;;;5050469;28;20466;-63
2022/01/04 09:27:16;;;;;;;6.07;1.65;;;;;;;;;;5047098;28;20038;-63
2022/01/04 09:29:42;;;;;;;6.57;1.20;;;6.30;99.90;;;;;;5053168;28;20029;-63
2022/01/04 09:32:13;;;;;;;5.97;1.17;;;6.30;99.90;;;;;;5053470;28;20082;-63
2022/01/04 09:34:39;;;;;;;4.07;1.10;;;;;;;;;;5052939;28;20425;-64
2022/01/04 09:37:05;;;;;;;3.60;0.90;;;;;;;;;;5052631;28;20059;-64
2022/01/04 09:39:31;;;;;;;3.55;0.90;;;;;;;;;;5052775;28;20068;-64
2022/01/04 09:41:59;;;;;;;2.53;0.77;;;;;;;;;;5053430;28;20045;-63
2022/01/04 09:44:27;;;;;;;9.95;1.25;;;6.00;99.90;;;;;;5052898;28;20067;-63
2022/01/04 09:46:53;;;;;;;3.67;1.10;;;;;;;;;;5052974;28;20116;-63
2022/01/04 09:49:19;;;;;;;4.95;0.98;;;5.90;99.90;;;;;;5053085;28;20037;-63
2022/01/04 09:51:46;;;;;;;6.38;1.17;;;;;;;;;;5053002;28;20105;-63
2022/01/04 09:54:12;;;;;;;7.57;1.33;;;6.00;99.90;;;;;;5034872;28;20052;-63
2022/01/04 09:56:39;;;;;;;3.83;1.00;;;5.80;99.90;;;;;;5035122;28;20076;-63
2022/01/04 09:59:05;;;;;;;2.85;1.02;;;;;;;;;;5053040;28;20044;-63
2022/01/04 10:01:36;;;;;;;3.20;0.80;;;5.30;99.90;;;;;;5051581;28;20455;-65
2022/01/04 10:04:03;;;;;;;4.68;1.33;;;;;;;;;;5051751;28;20041;-64
2022/01/04 10:06:28;;;;;;;7.07;1.30;;;5.70;99.90;;;;;;5051743;28;20402;-63
2022/01/04 10:09:04;;;;;;;4.63;1.38;;;5.80;99.90;;;;;;5052701;28;20029;-63
2022/01/04 10:11:34;;;;;;;4.82;0.90;;;;;;;;;;5052591;28;20411;-63
2022/01/04 10:14:20;;;;;;;4.43;1.45;;;5.80;99.90;;;;;;5052343;28;20407;-63
2022/01/04 10:16:50;;;;;;;5.70;1.48;;;;;;;;;;5033421;28;20037;-64
2022/01/04 10:19:26;;;;;;;5.00;1.08;;;;;;;;;;5051673;28;20478;-64
2022/01/04 10:22:09;;;;;;;7.97;1.30;;;;;;;;;;5050028;28;20407;-63
2022/01/04 10:24:35;;;;;;;8.40;1.70;;;;;;;;;;5051233;28;20120;-63
2022/01/04 10:27:21;;;;;;;6.53;1.70;;;;;;;;;;5051648;28;20482;-64
2022/01/04 10:29:48;;;;;;;5.25;1.17;;;;;;;;;;5050142;28;20037;-63
2022/01/04 10:32:14;;;;;;;8.75;1.15;;;5.60;99.90;;;;;;5052127;28;20039;-63
2022/01/04 10:34:50;;;;;;;5.40;2.20;;;;;;;;;;5051924;28;20116;-65
2022/01/04 10:37:40;;;;;;;9.02;1.63;;;;;;;;;;5046746;28;20032;-64
2022/01/04 10:40:08;;;;;;;3.60;0.95;;;;;;;;;;5041366;28;20080;-64
2022/01/04 10:42:34;;;;;;;5.78;1.10;;;;;;;;;;5033717;28;20037;-63
2022/01/04 10:45:20;;;;;;;6.95;1.35;;;;;;;;;;5051637;28;20044;-62
2022/01/04 10:47:45;;;;;;;8.55;1.50;;;5.60;99.90;;;;;;5043634;28;20503;-63
2022/01/04 10:50:11;;;;;;;5.57;1.20;;;5.60;99.90;;;;;;5030058;28;20029;-64
2022/01/04 10:52:37;;;;;;;6.57;1.50;;;;;;;;;;5051815;28;20041;-63
2022/01/04 10:55:15;;;;;;;6.90;1.08;;;5.60;99.90;;;;;;5051360;28;20125;-64
2022/01/04 10:57:41;;;;;;;7.15;1.40;;;;;;;;;;5033959;28;20065;-64
2022/01/04 11:00:20;;;;;;;4.85;1.42;;;5.30;99.90;;;;;;5050939;28;20114;-63
2022/01/04 11:02:46;;;;;;;4.47;1.55;;;5.30;99.90;;;;;;5046604;28;20048;-64
2022/01/04 11:05:12;;;;;;;5.05;1.40;;;5.60;99.90;;;;;;5051488;28;20040;-63
2022/01/04 11:08:03;;;;;;;5.40;1.40;;;5.60;99.90;;;;;;5034373;28;20406;-63
2022/01/04 11:10:30;;;;;;;5.63;1.50;;;;;;;;;;5051894;28;20420;-63
2022/01/04 11:12:58;;;;;;;5.25;1.33;;;5.10;99.90;;;;;;5051248;28;20041;-64
2022/01/04 11:15:24;;;;;;;7.00;1.20;;;;;;;;;;5050976;28;20051;-63
2022/01/04 11:17:50;;;;;;;6.20;1.25;;;;;;;;;;5051458;28;20388;-64
2022/01/04 11:20:17;;;;;;;5.93;1.40;;;;;;;;;;5051470;28;20094;-63
2022/01/04 11:22:47;;;;;;;7.03;1.83;;;5.70;99.90;;;;;;5051424;28;20045;-64
2022/01/04 11:25:15;;;;;;;8.20;1.30;;;;;;;;;;5050899;28;20075;-63
2022/01/04 11:27:43;;;;;;;7.18;1.70;;;5.80;99.90;;;;;;5050776;28;20095;-63
2022/01/04 11:30:17;;;;;;;6.90;1.30;;;5.50;99.90;;;;;;5048532;28;20037;-63
2022/01/04 11:32:50;;;;;;;6.88;1.55;;;6.00;99.90;;;;;;5051327;28;20033;-62
2022/01/04 11:35:20;;;;;;;5.97;1.30;;;;;;;;;;5051033;28;20403;-62
2022/01/04 11:37:57;;;;;;;6.55;1.67;;;;;;;;;;5047722;28;20376;-64
2022/01/04 11:40:40;;;;;;;9.90;1.80;;;5.90;99.90;;;;;;5055514;28;20411;-63
2022/01/04 11:43:23;;;;;;;7.13;1.60;;;;;;;;;;5055340;28;20194;-63
2022/01/04 11:45:49;;;;;;;9.32;1.70;;;5.90;99.90;;;;;;5052568;28;20033;-64
2022/01/04 11:48:33;;;;;;;6.53;1.77;;;;;;;;;;5055482;28;20041;-62
2022/01/04 11:51:04;;;;;;;7.97;1.52;;;;;;;;;;5049134;28;20090;-63
2022/01/04 11:53:30;;;;;;;7.60;2.10;;;;;;;;;;5053074;28;20091;-63
2022/01/04 11:56:04;;;;;;;7.70;1.70;;;5.80;99.90;;;;;;5056727;28;20068;-63
2022/01/04 11:58:44;;;;;;;9.85;1.98;;;;;;;;;;5056661;28;20044;-64
2022/01/04 12:01:11;;;;;;;7.72;1.85;;;;;;;;;;5052057;28;20041;-63
2022/01/04 12:03:41;;;;;;;8.57;1.70;;;;;;;;;;5054496;28;20052;-64
2022/01/04 12:06:08;;;;;;;7.68;1.30;;;;;;;;;;5036377;28;20033;-64
2022/01/04 12:08:35;;;;;;;7.97;1.40;;;5.70;99.90;;;;;;5054596;28;20115;-63
2022/01/04 12:11:00;;;;;;;6.63;1.60;;;5.60;99.90;;;;;;5054445;28;20518;-64
2022/01/04 12:13:46;;;;;;;7.00;2.40;;;6.00;99.90;;;;;;5036733;28;20083;-63
2022/01/04 12:16:12;;;;;;;8.15;1.55;;;;;;;;;;5054347;28;20069;-64
2022/01/04 12:18:38;;;;;;;9.23;2.13;;;;;;;;;;5053765;28;20075;-63
2022/01/04 12:21:20;;;;;;;8.93;1.52;;;;;;;;;;5054028;28;20120;-63
2022/01/04 12:23:48;;;;;;;7.82;1.60;;;;;;;;;;5053119;28;20069;-63
2022/01/04 12:26:17;;;;;;;7.32;1.45;;;;;;;;;;5054888;28;20089;-64
2022/01/04 12:28:43;;;;;;;7.10;1.50;;;;;;;;;;5053938;28;20623;-63
2022/01/04 12:31:23;;;;;;;5.70;2.03;;;;;;;;;;5054256;28;20037;-63
2022/01/04 12:33:51;;;;;;;6.20;1.40;;;;;;;;;;5035036;28;20059;-63
2022/01/04 12:36:29;;;;;;;6.50;1.48;;;;;;;;;;5053656;28;20088;-64
2022/01/04 12:38:57;;;;;;;6.85;1.63;;;5.70;99.90;;;;;;5047011;28;20044;-63
2022/01/04 12:41:24;;;;;;;7.35;2.20;;;;;;;;;;5053237;28;20113;-63
2022/01/04 12:43:50;;;;;;;7.50;1.42;;;;;;;;;;5053677;28;20032;-63
2022/01/04 12:46:28;;;;;;;8.23;1.55;;;;;;;;;;5053156;28;20200;-64
2022/01/04 12:48:56;;;;;;;6.55;1.17;;;5.90;99.90;;;;;;5046811;28;20119;-63
2022/01/04 12:53:59;;;;;;;6.53;1.35;;;;;;;;;;5140291;22;20135;-61
2022/01/04 12:56:26;;;;;;;8.45;1.30;;;5.70;99.90;;;;;;5085683;28;20470;-62
2022/01/04 12:58:52;;;;;;;9.27;1.88;;;;;;;;;;5078917;28;20035;-62
2022/01/04 13:01:23;;;;;;;6.00;1.48;;;6.40;99.90;;;;;;5073691;28;20036;-62
2022/01/04 13:03:49;;;;;;;9.85;1.67;;;6.00;99.90;;;;;;5076805;28;20067;-62
2022/01/04 13:06:15;;;;;;;11.13;1.70;;;6.00;99.10;;;;;;5073866;28;20033;-62
2022/01/04 13:08:41;;;;;;;5.15;1.30;;;;;;;;;;5074459;28;20039;-62
2022/01/04 13:11:07;;;;;;;5.68;1.30;;;;;;;;;;5073625;28;20037;-63
2022/01/04 13:13:34;;;;;;;6.75;0.98;;;;;;;;;;5073085;28;20036;-62
2022/01/04 13:16:18;;;;;;;6.40;1.52;;;;;;;;;;5075201;28;20045;-62
2022/01/04 13:18:45;;;;;;;6.15;1.15;;;;;;;;;;5075077;28;20486;-62
2022/01/04 13:21:11;;;;;;;4.75;1.08;;;;;;;;;;5093122;28;20225;-62
2022/01/04 13:23:40;;;;;;;7.45;1.50;;;;;;;;;;5093416;28;20122;-63
2022/01/04 13:26:08;;;;;;;5.05;1.40;;;5.90;93.10;;;;;;5077478;28;20045;-63
2022/01/04 13:28:35;;;;;;;5.07;1.40;;;;;;;;;;5078023;28;20097;-63
2022/01/04 13:31:01;;;;;;;5.35;1.30;;;5.90;88.90;;;;;;5076151;28;20063;-63
2022/01/04 13:33:27;;;;;;;5.28;1.60;;;;;;;;;;5078975;28;20486;-62
2022/01/04 13:35:55;;;;;;;7.85;1.60;;;5.90;87.30;;;;;;5079954;28;20040;-62
2022/01/04 13:38:24;;;;;;;5.80;1.52;;;5.70;90.00;;;;;;5088968;28;20040;-62
2022/01/04 13:40:51;;;;;;;7.20;1.65;;;;;;;;;;5074467;28;20051;-62
2022/01/04 13:43:19;;;;;;;8.30;1.65;;;;;;;;;;5092744;28;20122;-61
2022/01/04 13:45:47;;;;;;;5.80;1.40;;;;;;;;;;5092546;28;20051;-62
2022/01/04 13:48:14;;;;;;;5.18;1.48;;;;;;;;;;5092590;28;20047;-62
2022/01/04 13:50:43;;;;;;;7.47;1.30;;;5.90;86.40;;;;;;5092602;28;20187;-61
2022/01/04 13:53:09;;;;;;;6.53;1.30;;;;;;;;;;5074752;28;20032;-61
2022/01/04 13:55:44;;;;;;;7.20;1.88;;;;;;;;;;5074458;28;20512;-61
2022/01/04 13:58:11;;;;;;;6.97;2.10;;;6.40;90.70;;;;;;5091694;28;20521;-62
2022/01/04 14:00:38;;;;;;;8.73;1.60;;;;;;;;;;5092739;28;20036;-62
2022/01/04 14:03:24;;;;;;;5.60;1.65;;;;;;;;;;5092277;28;20578;-61
2022/01/04 14:05:50;;;;;;;6.20;1.50;;;;;;;;;;5071723;28;20501;-61
2022/01/04 14:08:16;;;;;;;8.68;1.98;;;;;;;;;;5080381;28;20075;-62
2022/01/04 14:10:53;;;;;;;8.98;1.50;;;;;;;;;;5091067;28;20402;-62
2022/01/04 14:13:36;;;;;;;9.38;1.67;;;7.00;90.40;;;;;;5077611;28;20112;-62
2022/01/04 14:16:09;;;;;;;7.90;1.45;;;;;;;;;;5074421;28;20033;-62
2022/01/04 14:18:36;;;;;;;15.10;2.10;;;;;;;;;;5076062;28;20055;-62
2022/01/04 14:21:02;;;;;;;10.32;1.48;;;6.80;91.60;;;;;;5074537;28;20044;-61
2022/01/04 14:23:31;;;;;;;5.82;1.60;;;;;;;;;;5075371;28;20033;-62
2022/01/04 14:26:01;;;;;;;7.55;1.55;;;;;;;;;;5073480;28;20052;-62
2022/01/04 14:28:27;;;;;;;7.32;1.70;;;6.50;92.40;;;;;;5074329;28;20029;-62
2022/01/04 14:30:52;;;;;;;9.57;2.13;;;6.30;90.90;;;;;;5072741;28;20525;-62
2022/01/04 14:33:18;;;;;;;8.20;1.83;;;;;;;;;;5072662;28;20044;-61
2022/01/04 14:35:44;;;;;;;13.43;1.70;;;;;;;;;;5075459;28;20133;-62
2022/01/04 14:38:10;;;;;;;12.73;2.65;;;;;;;;;;5074391;28;20052;-61
2022/01/04 14:40:38;;;;;;;9.43;1.80;;;;;;;;;;5077143;28;20071;-62
2022/01/04 14:43:04;;;;;;;6.47;1.60;;;6.30;86.40;;;;;;5074245;28;20055;-62
2022/01/04 14:45:31;;;;;;;7.53;2.13;;;;;;;;;;5074185;28;20414;-61